Time;durP1;ratioP1;P1;durP2;ratioP2;P2;SDS_P1;SDS_P2;PMS_P1;PMS_P2;Temp;Humidity;BMP_temperature;BMP_pressure;BME280_temperature;BME280_humidity;BME280_pressure;Samples;Min_cycle;Max_cycle;Signal;HPM_P1;HPM_P2
2022/01/17 00:00:36;;;;;;;41.33;13.90;;;;;;;3.97;96.34;101619.69;4880797;29;20033;-76
2022/01/17 00:03:03;;;;;;;44.75;12.25;;;;;;;3.97;96.58;101633.88;4899191;29;20039;-74
2022/01/17 00:05:29;;;;;;;38.50;11.95;;;;;;;3.98;96.50;101635.56;4901273;29;20084;-75
2022/01/17 00:07:55;;;;;;;40.63;13.93;;;;;;;3.98;96.51;101638.25;4901281;29;20104;-75
2022/01/17 00:10:20;;;;;;;38.00;11.60;;;;;;;4.03;96.66;101635.19;4901014;29;20468;-75
2022/01/17 00:12:47;;;;;;;42.28;12.23;;;;;;;3.97;96.51;101638.38;4901216;29;20135;-75
2022/01/17 00:15:21;;;;;;;38.85;12.48;;;;;;;3.94;96.28;101644.00;4884198;29;20488;-76
2022/01/17 00:17:51;;;;;;;38.42;13.20;;;;;;;3.93;96.26;101640.47;4901095;29;20035;-75
2022/01/17 00:20:25;;;;;;;44.15;12.57;;;;;;;3.94;96.40;101649.31;4900751;29;20069;-76
2022/01/17 00:22:51;;;;;;;40.13;12.13;;;;;;;3.94;96.21;101642.13;4901013;29;20043;-75
2022/01/17 00:25:16;;;;;;;41.13;11.85;;;;;;;3.94;96.54;101658.13;4883957;29;20033;-75
2022/01/17 00:27:42;;;;;;;43.63;12.98;;;;;;;3.98;96.61;101659.56;4884004;29;20037;-76
2022/01/17 00:30:09;;;;;;;31.80;11.00;;;;;;;4.00;96.31;101667.44;4883596;29;20029;-76
2022/01/17 00:32:35;;;;;;;35.15;11.00;;;;;;;3.94;96.20;101668.00;4900500;29;20068;-75
2022/01/17 00:35:01;;;;;;;32.28;11.30;;;;;;;3.98;96.10;101658.72;4900735;29;20032;-75
2022/01/17 00:37:26;;;;;;;39.22;10.27;;;;;;;3.96;96.42;101644.69;4883806;29;20032;-75
2022/01/17 00:39:51;;;;;;;44.03;12.53;;;;;;;3.98;96.58;101637.38;4900757;29;20047;-75
2022/01/17 00:42:17;;;;;;;40.33;11.68;;;;;;;3.99;96.08;101639.94;4883188;29;20620;-76
2022/01/17 00:44:42;;;;;;;33.67;11.70;;;;;;;3.99;96.40;101636.41;4900843;29;20084;-75
2022/01/17 00:47:08;;;;;;;35.45;11.63;;;;;;;4.02;95.80;101638.81;4900232;29;20032;-75
2022/01/17 00:49:33;;;;;;;35.72;12.93;;;;;;;4.00;96.24;101635.44;4900201;29;20451;-76
2022/01/17 00:51:59;;;;;;;37.72;10.80;;;;;;;4.01;95.93;101645.97;4900513;29;20041;-76
2022/01/17 00:54:24;;;;;;;42.35;11.88;;;;;;;4.01;96.27;101650.47;4900214;29;20032;-77
2022/01/17 00:56:50;;;;;;;45.67;11.98;;;;;;;4.00;96.24;101651.44;4883616;29;20047;-75
2022/01/17 00:59:17;;;;;;;37.75;12.30;;;;;;;4.02;96.21;101661.00;4883368;29;20444;-75
2022/01/17 01:01:43;;;;;;;45.95;12.00;;;;;;;4.03;96.25;101667.19;4900259;29;20033;-75
2022/01/17 01:04:08;;;;;;;32.15;11.48;;;;;;;4.04;95.98;101666.22;4900265;29;20029;-76
2022/01/17 01:06:36;;;;;;;43.85;12.85;;;;;;;4.07;96.25;101668.63;4899917;29;20053;-75
2022/01/17 01:09:02;;;;;;;35.40;10.48;;;;;;;4.09;95.92;101672.00;4900233;29;20055;-75
2022/01/17 01:11:28;;;;;;;47.10;11.18;;;;;;;4.07;96.18;101673.94;4900114;29;20061;-75
2022/01/17 01:13:53;;;;;;;40.23;11.87;;;;;;;4.04;95.83;101661.72;4899630;29;20116;-75
2022/01/17 01:29:12;;;;;;;42.33;11.05;;;;;;;4.02;96.06;101644.16;4899449;29;20047;-75
2022/01/17 01:31:49;;;;;;;31.45;11.90;;;;;;;4.02;96.41;101639.66;4899659;29;20025;-75
2022/01/17 01:34:15;;;;;;;37.42;11.75;;;;;;;4.03;96.31;101641.38;4899414;29;20449;-76
2022/01/17 01:36:41;;;;;;;43.03;13.05;;;;;;;4.07;96.41;101656.13;4899462;29;20391;-75
2022/01/17 01:39:08;;;;;;;44.53;13.68;;;;;;;4.10;96.13;101661.19;4899668;29;20032;-75
2022/01/17 01:41:43;;;;;;;38.95;10.73;;;;;;;4.11;96.32;101664.72;4882567;29;20034;-75
2022/01/17 01:44:19;;;;;;;42.92;14.55;;;;;;;4.10;96.23;101684.38;4882733;29;20047;-75
2022/01/17 01:46:47;;;;;;;44.67;13.73;;;;;;;4.10;96.73;101689.69;4899558;29;20048;-75
2022/01/17 01:49:14;;;;;;;45.28;13.50;;;;;;;4.16;96.59;101703.34;4899182;29;20036;-76
2022/01/17 01:51:40;;;;;;;57.05;14.70;;;;;;;4.23;95.99;101701.00;4899424;29;20594;-77
2022/01/17 01:54:07;;;;;;;49.78;13.48;;;;;;;4.26;95.95;101694.56;4899267;29;20049;-76
2022/01/17 01:56:36;;;;;;;45.67;13.18;;;;;;;4.20;96.32;101685.25;4899262;29;20064;-76
2022/01/17 01:59:04;;;;;;;56.25;13.55;;;;;;;4.16;96.04;101679.31;4898900;29;20515;-76
2022/01/17 02:01:29;;;;;;;40.95;11.73;;;;;;;4.16;96.29;101678.47;4899143;29;20063;-76
2022/01/17 02:03:54;;;;;;;45.08;14.65;;;;;;;4.16;96.49;101675.81;4899195;29;20440;-75
2022/01/17 02:06:20;;;;;;;51.95;15.13;;;;;;;4.16;96.35;101667.81;4898726;29;20119;-75
2022/01/17 02:08:45;;;;;;;43.67;12.85;;;;;;;4.17;95.95;101669.50;4899296;29;20131;-76
2022/01/17 02:11:11;;;;;;;47.15;13.40;;;;;;;4.16;96.37;101679.31;4898963;29;20036;-76
2022/01/17 02:13:40;;;;;;;56.00;14.43;;;;;;;4.17;96.18;101681.00;4882585;29;20032;-77
2022/01/17 02:16:11;;;;;;;47.45;14.15;;;;;;;4.19;96.31;101662.22;4899059;29;20124;-76
2022/01/17 02:18:37;;;;;;;48.63;15.68;;;;;;;4.19;96.48;101675.56;4898878;29;20079;-75
2022/01/17 02:23:43;;;;;;;52.88;14.13;;;;;;;4.20;96.41;101663.91;4898806;29;19924;-75
2022/01/17 02:26:09;;;;;;;54.15;16.48;;;;;;;4.19;96.18;101668.38;4881504;29;20071;-76
2022/01/17 02:28:36;;;;;;;56.63;14.82;;;;;;;4.21;95.93;101670.94;4898834;29;20530;-77
2022/01/17 02:31:06;;;;;;;53.08;15.60;;;;;;;4.21;96.52;101678.09;4899024;29;20071;-76
2022/01/17 02:33:34;;;;;;;44.55;13.48;;;;;;;4.21;95.99;101684.25;4898520;29;20388;-76
2022/01/17 02:36:02;;;;;;;41.42;15.27;;;;;;;4.23;95.82;101679.66;4898444;29;20036;-77
2022/01/17 02:38:28;;;;;;;47.83;16.13;;;;;;;4.24;95.75;101676.00;4898660;29;20032;-77
2022/01/17 02:40:54;;;;;;;44.78;13.32;;;;;;;4.25;96.35;101672.34;4898865;29;20033;-75
2022/01/17 02:43:21;;;;;;;56.72;14.63;;;;;;;4.25;96.31;101672.34;4898509;29;20465;-76
2022/01/17 02:48:22;;;;;;;48.45;13.43;;;;;;;4.23;96.15;101655.63;4898554;29;20040;-75
2022/01/17 02:50:48;;;;;;;46.55;13.90;;;;;;;4.22;96.01;101651.28;4898418;29;20035;-77
2022/01/17 02:53:14;;;;;;;50.92;13.55;;;;;;;4.19;95.86;101646.19;4898162;29;20035;-76
2022/01/17 02:55:46;;;;;;;49.30;14.48;;;;;;;4.20;96.08;101647.91;4898244;29;20037;-77
2022/01/17 02:58:13;;;;;;;55.95;15.32;;;;;;;4.24;96.05;101654.66;4898204;29;20487;-76
2022/01/17 03:00:39;;;;;;;49.22;13.15;;;;;;;4.22;95.71;101640.59;4897773;29;20531;-76
2022/01/17 03:03:04;;;;;;;39.13;13.88;;;;;;;4.24;95.98;101641.31;4898069;29;20040;-77
2022/01/17 03:05:30;;;;;;;33.25;12.57;;;;;;;4.23;95.70;101647.63;4898353;29;20032;-75
2022/01/17 03:07:55;;;;;;;41.30;13.05;;;;;;;4.21;95.94;101654.06;4897965;29;20057;-77
2022/01/17 03:10:39;;;;;;;47.87;14.57;;;;;;;4.25;96.32;101655.50;4898731;29;20040;-76
2022/01/17 03:13:09;;;;;;;43.85;12.68;;;;;;;4.26;95.87;101665.19;4898356;29;20733;-76
2022/01/17 03:15:35;;;;;;;47.60;13.30;;;;;;;4.27;96.06;101656.22;4881097;29;20052;-76
2022/01/17 03:18:02;;;;;;;46.10;13.68;;;;;;;4.25;96.24;101643.00;4881396;29;20028;-76
2022/01/17 03:20:27;;;;;;;45.25;14.20;;;;;;;4.27;95.80;101657.06;4865509;29;20040;-75
2022/01/17 03:22:56;;;;;;;39.22;13.18;;;;;;;4.27;95.46;101662.41;4881208;29;20128;-76
2022/01/17 03:25:21;;;;;;;43.65;14.27;;;;;;;4.29;95.86;101662.28;4897519;29;20045;-77
2022/01/17 03:27:47;;;;;;;43.67;13.63;;;;;;;4.29;95.65;101663.13;4881393;29;20029;-76
2022/01/17 03:30:13;;;;;;;51.53;15.60;;;;;;;4.28;96.07;101663.25;4898193;29;20539;-77
2022/01/17 03:32:38;;;;;;;47.05;13.32;;;;;;;4.30;95.64;101662.09;4897932;29;20373;-76
2022/01/17 03:35:04;;;;;;;51.85;14.52;;;;;;;4.29;95.45;101665.78;4881316;29;20040;-77
2022/01/17 03:37:29;;;;;;;;;;;;;;;4.28;96.08;101665.91;4882586;29;20472;-78
2022/01/17 03:39:55;;;;;;;40.75;14.63;;;;;;;4.27;95.73;101677.56;4869604;29;19919;-77
2022/01/17 03:42:22;;;;;;;55.33;14.80;;;;;;;4.29;95.52;101670.28;4884968;29;20064;-75
2022/01/17 03:44:47;;;;;;;40.25;12.02;;;;;;;4.30;95.36;101675.44;4901713;29;20032;-76
2022/01/17 03:47:13;;;;;;;51.28;13.38;;;;;;;4.30;95.73;101664.78;4884465;29;20047;-76
2022/01/17 03:49:38;;;;;;;49.58;15.70;;;;;;;4.28;95.54;101666.75;4901606;29;20075;-76
2022/01/17 03:52:07;;;;;;;47.88;15.52;;;;;;;4.30;95.27;101672.78;4884817;29;20024;-76
2022/01/17 03:54:32;;;;;;;39.13;15.65;;;;;;;4.30;95.30;101677.31;4885315;29;20072;-76
2022/01/17 03:57:01;;;;;;;45.23;13.37;;;;;;;4.30;95.08;101686.13;4884737;29;20068;-76
2022/01/17 03:59:27;;;;;;;39.95;13.80;;;;;;;4.32;94.95;101689.50;4884673;29;20265;-76
2022/01/17 04:01:52;;;;;;;43.17;14.85;;;;;;;4.30;95.03;101669.28;4901254;29;20456;-76
2022/01/17 04:04:21;;;;;;;35.47;12.63;;;;;;;4.26;95.05;101667.88;4901304;29;20127;-76
2022/01/17 04:06:46;;;;;;;39.75;13.18;;;;;;;4.25;94.83;101675.03;4901033;29;20071;-75
2022/01/17 04:09:12;;;;;;;36.85;13.82;;;;;;;4.26;95.20;101671.38;4901401;29;20465;-76
2022/01/17 04:11:38;;;;;;;38.33;13.30;;;;;;;4.31;94.55;101693.16;4884013;29;20047;-76
2022/01/17 04:14:07;;;;;;;41.08;12.15;;;;;;;4.29;94.89;101695.13;4901335;29;20111;-76
2022/01/17 04:16:33;;;;;;;57.08;13.38;;;;;;;4.29;94.80;101689.78;4883996;29;20045;-77
2022/01/17 04:18:58;;;;;;;;;;;;;;;4.29;94.81;101686.28;4884559;29;20032;-76
2022/01/17 04:21:30;;;;;;;33.70;12.43;;;;;;;4.28;94.71;101685.44;4900886;29;19989;-76
2022/01/17 04:23:55;;;;;;;41.15;11.63;;;;;;;4.27;94.52;101680.22;4901330;29;20071;-76
2022/01/17 04:26:21;;;;;;;35.55;11.10;;;;;;;4.23;94.69;101689.47;4900991;29;20028;-75
2022/01/17 04:28:46;;;;;;;38.07;13.17;;;;;;;4.25;94.81;101691.03;4900600;29;20033;-76
2022/01/17 04:31:11;;;;;;;39.87;12.87;;;;;;;4.25;94.71;101701.72;4900586;29;20272;-76
2022/01/17 04:33:37;;;;;;;44.33;12.80;;;;;;;4.27;94.03;101705.09;4900783;29;20732;-76
2022/01/17 04:36:06;;;;;;;36.65;11.07;;;;;;;4.26;94.48;101707.88;4900541;29;20493;-76
2022/01/17 04:38:32;;;;;;;40.10;12.95;;;;;;;4.27;94.58;101706.91;4884017;29;20043;-76
2022/01/17 04:41:03;;;;;;;38.90;12.75;;;;;;;4.23;94.21;101709.00;4900607;29;20037;-76
2022/01/17 04:46:05;;;;;;;36.17;12.90;;;;;;;4.25;94.15;101715.03;4900489;29;20125;-76
2022/01/17 04:48:31;;;;;;;33.90;11.25;;;;;;;4.28;94.19;101709.44;4899763;29;20027;-75
2022/01/17 04:50:58;;;;;;;39.60;12.85;;;;;;;4.26;93.97;101706.06;4899589;29;20036;-75
2022/01/17 04:53:24;;;;;;;35.88;10.65;;;;;;;4.23;94.18;101697.47;4900307;29;20460;-75
2022/01/17 04:55:49;;;;;;;36.30;11.55;;;;;;;4.21;93.91;101692.28;4900337;29;20088;-76
2022/01/17 04:58:15;;;;;;;32.45;10.25;;;;;;;4.22;93.67;101685.97;4900247;29;20032;-75
2022/01/17 05:00:51;;;;;;;40.90;13.32;;;;;;;4.19;93.80;101692.41;4900281;29;20040;-76
2022/01/17 05:03:21;;;;;;;38.35;9.90;;;;;;;4.23;93.34;101700.16;4899861;29;20037;-75
2022/01/17 05:05:47;;;;;;;31.48;10.65;;;;;;;4.21;93.21;101710.94;4900593;29;20024;-75
2022/01/17 05:08:14;;;;;;;31.63;9.93;;;;;;;4.21;93.10;101708.28;4900010;29;20108;-75
2022/01/17 05:10:42;;;;;;;27.23;9.90;;;;;;;4.17;92.78;101713.03;4900037;29;20037;-75
2022/01/17 05:13:09;;;;;;;31.63;9.20;;;;;;;4.18;92.46;101712.06;4900090;29;20044;-75
2022/01/17 05:15:38;;;;;;;34.80;11.70;;;;;;;4.18;92.18;101728.06;4899931;29;20032;-76
2022/01/17 05:20:37;;;;;;;27.92;8.50;;;;;;;4.19;91.88;101731.56;4899726;29;20055;-75
2022/01/17 05:23:03;;;;;;;22.67;7.97;;;;;;;4.16;91.72;101732.66;4899599;29;20033;-75
2022/01/17 05:25:29;;;;;;;20.35;7.78;;;;;;;4.20;91.42;101738.59;4900073;29;20071;-75
2022/01/17 05:27:55;;;;;;;22.88;8.80;;;;;;;4.19;91.43;101734.25;4899668;29;20096;-75
2022/01/17 05:30:22;;;;;;;23.52;7.25;;;;;;;4.25;91.25;101740.88;4882811;29;20036;-75
2022/01/17 05:32:49;;;;;;;26.15;8.88;;;;;;;4.21;91.11;101736.78;4882711;29;20071;-76
2022/01/17 05:35:15;;;;;;;18.40;6.10;;;;;;;4.15;91.65;101741.66;4899623;29;20032;-75
2022/01/17 05:37:43;;;;;;;17.52;6.28;;;;;;;4.15;91.39;101738.97;4899911;29;20512;-75
2022/01/17 05:40:11;;;;;;;26.15;7.05;;;;;;;4.16;91.73;101734.50;4899156;29;20032;-74
2022/01/17 05:42:37;;;;;;;19.15;7.32;;;;;;;4.15;91.73;101735.47;4899416;29;20029;-75
2022/01/17 05:45:04;;;;;;;27.55;7.50;;;;;;;4.16;91.55;101731.81;4899245;29;20080;-75
2022/01/17 05:47:30;;;;;;;24.25;7.93;;;;;;;4.18;91.26;101736.06;4899321;29;20044;-76
2022/01/17 05:49:55;;;;;;;21.08;8.02;;;;;;;4.17;91.22;101733.53;4899146;29;20040;-75
2022/01/17 05:52:20;;;;;;;19.95;6.68;;;;;;;4.17;90.92;101737.03;4899195;29;20041;-75
2022/01/17 05:54:46;;;;;;;30.03;8.13;;;;;;;4.17;91.24;101729.03;4900307;29;20032;-75
2022/01/17 05:57:12;;;;;;;23.88;7.95;;;;;;;4.19;91.15;101731.56;4899005;29;20048;-75
2022/01/17 05:59:37;;;;;;;22.52;7.18;;;;;;;4.20;91.18;101727.94;4899054;29;20476;-75
2022/01/17 06:02:03;;;;;;;23.33;7.38;;;;;;;4.19;90.75;101731.56;4898702;29;20487;-76
2022/01/17 06:04:28;;;;;;;23.13;7.78;;;;;;;4.21;90.79;101726.09;4898825;29;20029;-75
2022/01/17 06:06:54;;;;;;;17.50;6.97;;;;;;;4.22;91.34;101725.97;4898488;29;20499;-75
2022/01/17 06:09:19;;;;;;;27.20;7.60;;;;;;;4.22;91.19;101733.13;4898694;29;20492;-76
2022/01/17 06:11:45;;;;;;;17.85;7.43;;;;;;;4.19;91.18;101735.09;4898432;29;20273;-75
2022/01/17 06:14:15;;;;;;;19.80;7.28;;;;;;;4.22;91.39;101728.66;4898883;29;20040;-75
2022/01/17 06:16:41;;;;;;;22.45;7.72;;;;;;;4.26;91.17;101730.09;4898339;29;20460;-75
2022/01/17 06:19:06;;;;;;;19.73;6.55;;;;;;;4.33;90.83;101735.72;4898443;29;20036;-75
2022/01/17 06:21:33;;;;;;;18.73;7.60;;;;;;;4.29;90.85;101743.16;4898375;29;20044;-75
2022/01/17 06:24:00;;;;;;;23.77;7.63;;;;;;;4.29;91.00;101729.81;4898260;29;20077;-75
2022/01/17 06:26:26;;;;;;;18.30;6.80;;;;;;;4.28;91.14;101730.78;4881713;29;20092;-74
2022/01/17 06:28:51;;;;;;;15.73;5.60;;;;;;;4.32;90.71;101726.00;4881476;29;20029;-75
2022/01/17 06:31:16;;;;;;;19.38;7.65;;;;;;;4.33;91.48;101727.72;4898458;29;20040;-75
2022/01/17 06:33:42;;;;;;;18.80;6.30;;;;;;;4.30;91.76;101734.16;4898468;29;20036;-75
2022/01/17 06:36:07;;;;;;;24.27;6.03;;;;;;;4.32;91.48;101732.19;4881534;29;20267;-76
2022/01/17 06:38:32;;;;;;;20.05;6.40;;;;;;;4.40;90.91;101728.88;4898242;29;20537;-76
2022/01/17 06:40:58;;;;;;;19.13;6.73;;;;;;;4.36;91.09;101733.63;4897943;29;20033;-77
2022/01/17 06:43:23;;;;;;;18.75;7.57;;;;;;;4.46;91.26;101718.53;4898278;29;20263;-75
2022/01/17 06:45:49;;;;;;;24.27;7.40;;;;;;;4.46;90.69;101718.53;4898232;29;20079;-75
2022/01/17 06:48:15;;;;;;;23.10;6.60;;;;;;;4.49;90.97;101712.91;4898311;29;20040;-75
2022/01/17 06:50:40;;;;;;;17.95;5.78;;;;;;;4.48;91.01;101705.03;4897990;29;20039;-75
2022/01/17 06:53:07;;;;;;;27.17;8.15;;;;;;;4.46;90.39;101717.69;4897933;29;20039;-75
2022/01/17 06:55:32;;;;;;;25.65;6.68;;;;;;;4.42;90.66;101711.75;4898195;29;20039;-75
2022/01/17 06:57:57;;;;;;;17.83;5.70;;;;;;;4.40;90.27;101715.53;4881302;29;20067;-75
2022/01/17 07:00:23;;;;;;;20.10;6.55;;;;;;;4.46;90.92;101731.88;4898139;29;20112;-75
2022/01/17 07:02:48;;;;;;;18.25;6.70;;;;;;;4.45;90.53;101740.84;4881343;29;20041;-75
2022/01/17 07:05:14;;;;;;;22.55;6.35;;;;;;;4.45;90.41;101743.53;4897878;29;20459;-75
2022/01/17 07:07:39;;;;;;;22.75;5.88;;;;;;;4.49;90.25;101746.75;4897545;29;20061;-75
2022/01/17 07:10:05;;;;;;;14.48;5.78;;;;;;;4.38;90.85;101757.50;4880712;29;20128;-75
2022/01/17 07:12:36;;;;;;;16.02;5.93;;;;;;;4.49;91.36;101784.09;4865631;29;20056;-75
2022/01/17 07:15:02;;;;;;;17.05;5.95;;;;;;;4.42;90.42;101753.63;4881490;29;20120;-76
2022/01/17 07:17:27;;;;;;;;;;;;;;;4.39;90.90;101743.19;4880899;29;20071;-76
2022/01/17 07:19:52;;;;;;;22.38;7.97;;;;;;;4.39;91.75;101714.69;4897854;29;20371;-75
2022/01/17 07:22:18;;;;;;;18.00;5.93;;;;;;;4.39;90.77;101714.69;4881086;29;20421;-75
2022/01/17 07:24:47;;;;;;;16.93;6.20;;;;;;;4.33;90.84;101717.88;4897602;29;20257;-76
2022/01/17 07:27:12;;;;;;;15.88;5.40;;;;;;;4.29;91.19;101704.97;4897848;29;20443;-76
2022/01/17 07:29:38;;;;;;;21.63;5.88;;;;;;;4.32;91.20;101712.66;4897908;29;20120;-77
2022/01/17 07:32:05;;;;;;;16.00;6.22;;;;;;;4.30;91.35;101707.47;4898010;29;20036;-76
2022/01/17 07:34:30;;;;;;;;;;;;;;;4.32;90.87;101726.00;4881698;29;20036;-76
2022/01/17 07:36:56;;;;;;;20.83;6.53;;;;;;;4.28;90.83;101729.94;4897880;29;20311;-76
2022/01/17 07:39:21;;;;;;;18.05;6.15;;;;;;;4.18;90.90;101736.06;4881182;29;20028;-77
2022/01/17 07:41:46;;;;;;;14.52;5.68;;;;;;;4.14;91.47;101744.44;4897835;29;20112;-76
2022/01/17 07:44:19;;;;;;;14.43;5.47;;;;;;;4.22;91.57;101747.31;4898038;29;20044;-76
2022/01/17 07:46:58;;;;;;;16.38;5.07;;;;;;;4.38;91.36;101760.19;4897453;29;20037;-76
2022/01/17 07:49:25;;;;;;;16.08;5.28;;;;;;;4.35;91.21;101755.09;4897807;29;20039;-77
2022/01/17 07:51:58;;;;;;;16.38;6.47;;;;;;;4.35;91.16;101771.13;4898760;29;20396;-77
2022/01/17 07:54:28;;;;;;;12.73;5.40;;;;;;;4.23;91.01;101761.50;4897958;29;20033;-76
2022/01/17 07:56:55;;;;;;;18.08;6.10;;;;;;;4.25;91.61;101770.22;4881318;29;20472;-76
2022/01/17 07:59:20;;;;;;;16.77;6.88;;;;;;;4.29;91.30;101771.66;4897462;29;20029;-77
2022/01/17 08:01:46;;;;;;;18.15;6.53;;;;;;;4.30;91.01;101768.03;4897168;29;20480;-76
2022/01/17 08:04:11;;;;;;;14.77;6.50;;;;;;;4.31;91.28;101775.03;4897655;29;20433;-75
2022/01/17 08:06:39;;;;;;;19.95;7.05;;;;;;;4.31;91.19;101777.69;4880469;29;20455;-76
2022/01/17 08:09:18;;;;;;;16.70;6.57;;;;;;;4.31;91.68;101786.53;4897691;29;20049;-76
2022/01/17 08:11:43;;;;;;;20.17;7.07;;;;;;;4.29;91.55;101799.19;4880901;29;20041;-78
2022/01/17 08:14:09;;;;;;;19.70;7.43;;;;;;;4.33;91.92;101807.75;4897883;29;20044;-76
2022/01/17 08:16:34;;;;;;;19.25;7.82;;;;;;;4.36;92.05;101795.00;4897577;29;20047;-77
2022/01/17 08:18:59;;;;;;;22.60;8.77;;;;;;;4.36;91.64;101792.34;4897801;29;20033;-77
2022/01/17 08:21:25;;;;;;;21.52;8.50;;;;;;;4.40;91.56;101801.78;4880745;29;20092;-77
2022/01/17 08:23:53;;;;;;;22.52;9.25;;;;;;;4.43;92.04;101798.00;4898015;29;20033;-76
2022/01/17 08:26:21;;;;;;;21.88;8.18;;;;;;;4.44;91.65;101794.38;4900941;29;20051;-76
2022/01/17 08:28:47;;;;;;;22.00;8.55;;;;;;;4.47;91.57;101794.09;4900886;29;20033;-78
2022/01/17 08:31:13;;;;;;;21.73;8.25;;;;;;;4.51;91.79;101800.84;4901102;29;20045;-78
2022/01/17 08:33:38;;;;;;;25.17;9.93;;;;;;;4.54;91.59;101804.09;4901166;29;20432;-76
2022/01/17 08:36:04;;;;;;;28.00;9.38;;;;;;;4.64;91.51;101792.66;4900376;29;20040;-77
2022/01/17 08:38:30;;;;;;;22.73;9.60;;;;;;;4.64;91.87;101779.28;4883603;29;20532;-76
2022/01/17 08:40:59;;;;;;;29.38;8.85;;;;;;;4.68;91.53;101780.69;4900488;29;20392;-76
2022/01/17 08:43:25;;;;;;;22.17;9.82;;;;;;;4.68;91.70;101783.38;4899929;29;20032;-76
2022/01/17 08:45:51;;;;;;;26.50;10.80;;;;;;;4.67;91.32;101792.34;4900093;29;20372;-77
2022/01/17 08:48:16;;;;;;;26.00;10.80;;;;;;;4.68;91.56;101780.69;4900288;29;20033;-77
2022/01/17 08:50:43;;;;;;;25.57;9.47;;;;;;;4.67;91.36;101784.34;4883776;29;20196;-77
2022/01/17 08:53:10;;;;;;;27.33;9.68;;;;;;;4.66;91.61;101769.34;4900575;29;20264;-76
2022/01/17 08:55:37;;;;;;;23.80;9.38;;;;;;;4.69;91.24;101774.38;4900011;29;20142;-76
2022/01/17 08:58:03;;;;;;;31.80;11.25;;;;;;;4.68;91.17;101800.22;4900308;29;20043;-77
2022/01/17 09:00:33;;;;;;;25.85;10.90;;;;;;;4.66;91.71;101796.84;4884436;29;20388;-76
2022/01/17 09:03:01;;;;;;;28.20;11.00;;;;;;;4.76;91.48;101800.44;4900722;29;20035;-75
2022/01/17 09:05:28;;;;;;;24.13;10.70;;;;;;;4.67;91.79;101813.72;4900562;29;20036;-76
2022/01/17 09:07:53;;;;;;;24.77;10.55;;;;;;;4.66;91.22;101804.03;4900268;29;20243;-77
2022/01/17 09:10:19;;;;;;;19.73;9.30;;;;;;;4.68;91.51;101805.56;4900333;29;20468;-76
2022/01/17 09:12:46;;;;;;;24.58;10.98;;;;;;;4.71;91.05;101810.66;4882938;29;20289;-76
2022/01/17 09:15:11;;;;;;;31.45;10.65;;;;;;;4.66;91.66;101820.06;4900197;29;20040;-76
2022/01/17 09:17:37;;;;;;;21.70;9.13;;;;;;;4.79;91.24;101815.34;4899930;29;20035;-77
2022/01/17 09:20:04;;;;;;;24.58;10.00;;;;;;;4.69;90.93;101809.94;4899669;29;20484;-77
2022/01/17 09:22:29;;;;;;;25.17;9.57;;;;;;;4.69;90.79;101814.44;4899779;29;20037;-75
2022/01/17 09:24:55;;;;;;;26.73;11.00;;;;;;;4.69;91.06;101817.94;4898986;29;20132;-76
2022/01/17 09:27:20;;;;;;;24.98;9.75;;;;;;;4.71;90.97;101825.81;4899455;29;20032;-75
2022/01/17 09:29:47;;;;;;;25.35;10.88;;;;;;;4.72;90.52;101820.34;4882274;29;20092;-75
2022/01/17 09:32:14;;;;;;;25.88;10.60;;;;;;;4.70;91.09;101819.63;4899066;29;20040;-76
2022/01/17 09:34:41;;;;;;;25.38;11.18;;;;;;;4.70;90.93;101818.78;4899221;29;20116;-75
2022/01/17 09:37:08;;;;;;;26.33;9.98;;;;;;;4.70;90.83;101826.81;4898964;29;20088;-76
2022/01/17 09:39:35;;;;;;;29.52;11.80;;;;;;;4.70;90.86;101822.31;4899345;29;20033;-75
2022/01/17 09:42:01;;;;;;;26.65;10.07;;;;;;;4.76;90.45;101826.28;4899511;29;20186;-75
2022/01/17 09:44:26;;;;;;;27.08;11.02;;;;;;;4.75;90.26;101819.25;4899253;29;20130;-76
2022/01/17 09:46:54;;;;;;;24.70;10.85;;;;;;;4.78;90.07;101835.84;4899375;29;20044;-74
2022/01/17 09:54:35;;;;;;;26.58;10.63;;;;;;;4.91;89.65;101872.16;4899075;29;20112;-75
2022/01/17 09:57:06;;;;;;;29.00;9.80;;;;;;;4.89;89.79;101881.16;4899350;29;20091;-76
2022/01/17 09:59:33;;;;;;;26.25;11.15;;;;;;;4.79;90.36;101850.06;4899145;29;20075;-76
2022/01/17 10:01:58;;;;;;;23.65;9.60;;;;;;;4.79;90.99;101868.75;4882137;29;20088;-75
2022/01/17 10:04:23;;;;;;;32.58;12.23;;;;;;;4.75;91.38;101881.50;4899352;29;20036;-77
2022/01/17 10:06:53;;;;;;;26.30;10.52;;;;;;;4.72;90.89;101872.91;4899273;29;20032;-76
2022/01/17 10:09:24;;;;;;;27.63;11.15;;;;;;;4.68;91.95;101880.31;4882004;29;20039;-76
2022/01/17 10:12:11;;;;;;;21.42;9.40;;;;;;;4.68;92.53;101875.00;4898730;29;20528;-76
2022/01/17 10:14:58;;;;;;;26.63;10.70;;;;;;;4.65;92.86;101874.44;4898574;29;20029;-76
2022/01/17 10:17:40;;;;;;;27.33;10.77;;;;;;;4.55;92.76;101855.66;4899019;29;20047;-76
2022/01/17 10:20:08;;;;;;;27.98;9.98;;;;;;;4.53;93.44;101877.16;4898696;29;20115;-76
2022/01/17 10:22:43;;;;;;;24.05;10.60;;;;;;;4.52;93.34;101879.94;4882881;29;20379;-77
2022/01/17 10:26:01;;;;;;;24.55;9.48;;;;;;;4.49;94.16;101874.84;4899575;29;20073;-77
2022/01/17 10:36:49;;;;;;;25.75;11.00;;;;;;;4.55;94.20;101887.69;4898824;29;20058;-76
2022/01/17 10:39:15;;;;;;;23.85;11.38;;;;;;;4.58;94.64;101881.25;4898953;29;20032;-76
2022/01/17 10:41:40;;;;;;;28.75;10.23;;;;;;;4.64;94.50;101880.75;4898801;29;20466;-76
2022/01/17 10:44:06;;;;;;;25.08;10.20;;;;;;;4.65;94.08;101883.28;4898511;29;20045;-76
2022/01/17 10:46:31;;;;;;;26.75;10.07;;;;;;;4.64;94.37;101862.06;4898367;29;20037;-78
2022/01/17 10:48:57;;;;;;;26.45;9.82;;;;;;;4.62;95.08;101861.34;4899600;29;20036;-77
2022/01/17 10:51:34;;;;;;;25.17;9.90;;;;;;;4.53;94.90;101858.47;4899914;29;20037;-78
2022/01/17 10:54:11;;;;;;;26.23;10.38;;;;;;;4.51;95.38;101857.75;4898945;29;20127;-76
2022/01/17 10:56:49;;;;;;;22.90;9.63;;;;;;;4.53;95.55;101862.94;4882222;29;20068;-77
2022/01/17 10:59:26;;;;;;;25.52;10.32;;;;;;;4.52;95.32;101870.13;4899404;29;20492;-77
2022/01/17 11:01:55;;;;;;;;;;;;;;;4.51;96.10;101881.75;4899274;29;20064;-77
2022/01/17 11:04:38;;;;;;;26.35;9.90;;;;;;;4.57;96.13;101876.88;4898712;29;20363;-76
2022/01/17 11:07:06;;;;;;;34.83;11.25;;;;;;;4.58;95.61;101895.44;4898117;29;20043;-76
2022/01/17 11:09:44;;;;;;;31.10;10.10;;;;;;;4.57;96.08;101907.09;4898539;29;20045;-76
2022/01/17 11:12:12;;;;;;;31.65;11.15;;;;;;;4.61;95.32;101905.88;4898059;29;20041;-76
2022/01/17 11:14:39;;;;;;;24.95;10.55;;;;;;;4.62;95.74;101906.72;4897785;29;20134;-76
2022/01/17 11:17:16;;;;;;;24.75;10.10;;;;;;;4.64;95.94;101913.63;4897846;29;20088;-76
2022/01/17 11:20:04;;;;;;;25.42;10.05;;;;;;;4.64;96.01;101899.44;4897463;29;20087;-75
2022/01/17 11:22:29;;;;;;;27.75;11.02;;;;;;;4.68;95.97;101888.34;4897699;29;20028;-76
2022/01/17 11:24:57;;;;;;;32.97;10.70;;;;;;;4.70;95.63;101893.56;4898434;29;20045;-76
2022/01/17 11:27:23;;;;;;;29.40;11.90;;;;;;;4.69;95.60;101884.69;4898209;29;20040;-76
2022/01/17 11:29:50;;;;;;;30.55;11.13;;;;;;;4.66;96.09;101884.94;4897642;29;20037;-76
2022/01/17 11:32:16;;;;;;;31.55;11.55;;;;;;;4.66;95.94;101889.47;4881175;29;20028;-76
2022/01/17 11:34:41;;;;;;;28.05;10.85;;;;;;;4.68;95.49;101884.81;4897530;29;20037;-76
2022/01/17 11:37:07;;;;;;;28.77;11.03;;;;;;;4.73;96.18;101896.81;4897868;29;20037;-76
2022/01/17 11:39:43;;;;;;;29.48;10.93;;;;;;;4.77;96.05;101892.06;4880730;29;20025;-76
2022/01/17 11:42:41;;;;;;;30.88;10.63;;;;;;;4.74;95.38;101882.47;4897345;29;20036;-76
2022/01/17 11:45:31;;;;;;;27.67;11.32;;;;;;;4.80;95.68;101897.13;4897410;29;20076;-76
2022/01/17 11:48:00;;;;;;;30.20;10.85;;;;;;;4.83;95.95;101896.88;4890664;29;20041;-76
2022/01/17 11:50:37;;;;;;;29.55;9.60;;;;;;;4.82;95.47;101897.88;4897384;29;20059;-76
2022/01/17 11:53:11;;;;;;;;;;;;;;;4.87;96.40;101895.63;4882535;29;20039;-76
2022/01/17 11:58:31;;;;;;;27.48;11.07;;;;;;;4.84;95.97;101895.88;5155928;23;20489;-77
2022/01/17 12:00:57;;;;;;;34.90;11.75;;;;;;;4.83;96.03;101880.88;4921166;29;20032;-77
2022/01/17 12:03:25;;;;;;;29.13;12.50;;;;;;;4.87;96.15;101875.09;4921053;29;20032;-77